sensor_id;sensor_type;location;lat;lon;timestamp;P1;durP1;ratioP1;P2;durP2;ratioP2
70715;SDS011;59053;50.832;12.882;2023-02-01T00:02:23;5.78;;;1.85;;
70715;SDS011;59053;50.832;12.882;2023-02-01T00:04:48;7.63;;;2.60;;
70715;SDS011;59053;50.832;12.882;2023-02-01T00:07:13;8.50;;;2.80;;
70715;SDS011;59053;50.832;12.882;2023-02-01T00:09:39;5.80;;;2.50;;
70715;SDS011;59053;50.832;12.882;2023-02-01T00:12:04;7.03;;;2.10;;
70715;SDS011;59053;50.832;12.882;2023-02-01T00:14:29;7.17;;;2.03;;
70715;SDS011;59053;50.832;12.882;2023-02-01T00:16:55;8.13;;;2.38;;
70715;SDS011;59053;50.832;12.882;2023-02-01T00:19:20;6.60;;;2.27;;
70715;SDS011;59053;50.832;12.882;2023-02-01T00:21:45;10.57;;;2.70;;
70715;SDS011;59053;50.832;12.882;2023-02-01T00:24:11;6.13;;;2.30;;
70715;SDS011;59053;50.832;12.882;2023-02-01T00:26:38;7.37;;;2.20;;
70715;SDS011;59053;50.832;12.882;2023-02-01T00:29:06;10.52;;;2.08;;
70715;SDS011;59053;50.832;12.882;2023-02-01T00:31:33;7.50;;;2.10;;
70715;SDS011;59053;50.832;12.882;2023-02-01T00:33:59;11.17;;;2.50;;
70715;SDS011;59053;50.832;12.882;2023-02-01T00:36:24;6.67;;;2.10;;
70715;SDS011;59053;50.832;12.882;2023-02-01T00:38:49;4.87;;;1.97;;
70715;SDS011;59053;50.832;12.882;2023-02-01T00:41:16;6.30;;;1.70;;
70715;SDS011;59053;50.832;12.882;2023-02-01T00:43:42;7.65;;;2.10;;
70715;SDS011;59053;50.832;12.882;2023-02-01T00:46:08;6.90;;;1.97;;
70715;SDS011;59053;50.832;12.882;2023-02-01T00:48:34;9.10;;;2.17;;
70715;SDS011;59053;50.832;12.882;2023-02-01T00:51:00;6.27;;;2.00;;
70715;SDS011;59053;50.832;12.882;2023-02-01T00:53:26;8.80;;;2.20;;
70715;SDS011;59053;50.832;12.882;2023-02-01T00:55:51;6.47;;;2.33;;
70715;SDS011;59053;50.832;12.882;2023-02-01T00:58:17;7.97;;;2.50;;
70715;SDS011;59053;50.832;12.882;2023-02-01T01:00:42;7.43;;;2.47;;
70715;SDS011;59053;50.832;12.882;2023-02-01T01:03:07;6.37;;;2.20;;
70715;SDS011;59053;50.832;12.882;2023-02-01T01:05:49;8.13;;;2.20;;
70715;SDS011;59053;50.832;12.882;2023-02-01T01:08:15;8.32;;;2.28;;
70715;SDS011;59053;50.832;12.882;2023-02-01T01:10:41;6.90;;;2.00;;
70715;SDS011;59053;50.832;12.882;2023-02-01T01:13:06;6.77;;;2.10;;
70715;SDS011;59053;50.832;12.882;2023-02-01T01:15:36;9.32;;;2.33;;
70715;SDS011;59053;50.832;12.882;2023-02-01T01:18:03;8.35;;;1.80;;
70715;SDS011;59053;50.832;12.882;2023-02-01T01:20:29;7.50;;;1.97;;
70715;SDS011;59053;50.832;12.882;2023-02-01T01:22:54;8.30;;;2.00;;
70715;SDS011;59053;50.832;12.882;2023-02-01T01:25:19;12.20;;;2.33;;
70715;SDS011;59053;50.832;12.882;2023-02-01T01:27:46;10.05;;;2.25;;
70715;SDS011;59053;50.832;12.882;2023-02-01T01:30:11;9.93;;;2.20;;
70715;SDS011;59053;50.832;12.882;2023-02-01T01:32:36;6.90;;;1.93;;
70715;SDS011;59053;50.832;12.882;2023-02-01T01:35:02;12.37;;;2.70;;
70715;SDS011;59053;50.832;12.882;2023-02-01T01:37:27;11.87;;;2.10;;
70715;SDS011;59053;50.832;12.882;2023-02-01T01:39:53;8.63;;;2.47;;
70715;SDS011;59053;50.832;12.882;2023-02-01T01:42:20;10.60;;;2.25;;
70715;SDS011;59053;50.832;12.882;2023-02-01T01:44:57;8.93;;;2.10;;
70715;SDS011;59053;50.832;12.882;2023-02-01T01:47:22;6.50;;;2.00;;
70715;SDS011;59053;50.832;12.882;2023-02-01T01:49:48;8.48;;;2.20;;
70715;SDS011;59053;50.832;12.882;2023-02-01T01:52:15;9.18;;;2.25;;
70715;SDS011;59053;50.832;12.882;2023-02-01T01:54:40;9.87;;;2.00;;
70715;SDS011;59053;50.832;12.882;2023-02-01T01:57:19;8.57;;;2.30;;
70715;SDS011;59053;50.832;12.882;2023-02-01T01:59:53;13.50;;;2.40;;
70715;SDS011;59053;50.832;12.882;2023-02-01T02:02:22;6.67;;;2.30;;
70715;SDS011;59053;50.832;12.882;2023-02-01T02:04:47;7.13;;;1.97;;
70715;SDS011;59053;50.832;12.882;2023-02-01T02:07:14;9.95;;;1.70;;
70715;SDS011;59053;50.832;12.882;2023-02-01T02:09:43;5.93;;;2.03;;
70715;SDS011;59053;50.832;12.882;2023-02-01T02:12:08;7.57;;;2.05;;
70715;SDS011;59053;50.832;12.882;2023-02-01T02:14:34;12.33;;;2.30;;
70715;SDS011;59053;50.832;12.882;2023-02-01T02:17:06;5.93;;;2.10;;
70715;SDS011;59053;50.832;12.882;2023-02-01T02:19:55;7.73;;;2.20;;
70715;SDS011;59053;50.832;12.882;2023-02-01T02:22:59;15.00;;;2.40;;
70715;SDS011;59053;50.832;12.882;2023-02-01T02:28:44;7.93;;;1.92;;
70715;SDS011;59053;50.832;12.882;2023-02-01T02:34:26;6.40;;;1.90;;
70715;SDS011;59053;50.832;12.882;2023-02-01T02:42:43;7.95;;;1.70;;
70715;SDS011;59053;50.832;12.882;2023-02-01T02:45:42;7.38;;;2.00;;
70715;SDS011;59053;50.832;12.882;2023-02-01T02:51:05;5.88;;;1.80;;
70715;SDS011;59053;50.832;12.882;2023-02-01T02:53:59;6.40;;;1.90;;
70715;SDS011;59053;50.832;12.882;2023-02-01T02:56:46;6.85;;;2.10;;
70715;SDS011;59053;50.832;12.882;2023-02-01T02:59:30;7.53;;;2.10;;
70715;SDS011;59053;50.832;12.882;2023-02-01T03:02:15;8.50;;;2.00;;
70715;SDS011;59053;50.832;12.882;2023-02-01T03:04:59;7.28;;;1.70;;
70715;SDS011;59053;50.832;12.882;2023-02-01T03:13:04;9.40;;;1.95;;
70715;SDS011;59053;50.832;12.882;2023-02-01T03:15:43;7.07;;;1.60;;
70715;SDS011;59053;50.832;12.882;2023-02-01T03:18:19;7.15;;;1.85;;
70715;SDS011;59053;50.832;12.882;2023-02-01T03:20:50;8.88;;;3.15;;
70715;SDS011;59053;50.832;12.882;2023-02-01T03:23:18;9.10;;;2.00;;
70715;SDS011;59053;50.832;12.882;2023-02-01T03:25:47;7.13;;;2.10;;
70715;SDS011;59053;50.832;12.882;2023-02-01T03:28:13;6.90;;;1.80;;
70715;SDS011;59053;50.832;12.882;2023-02-01T03:30:40;8.10;;;2.00;;
70715;SDS011;59053;50.832;12.882;2023-02-01T03:33:12;7.50;;;2.15;;
70715;SDS011;59053;50.832;12.882;2023-02-01T03:36:00;7.70;;;2.00;;
70715;SDS011;59053;50.832;12.882;2023-02-01T03:38:43;9.60;;;1.90;;
70715;SDS011;59053;50.832;12.882;2023-02-01T03:41:28;9.03;;;2.03;;
70715;SDS011;59053;50.832;12.882;2023-02-01T03:46:38;10.05;;;2.00;;
70715;SDS011;59053;50.832;12.882;2023-02-01T03:49:32;11.98;;;2.00;;
70715;SDS011;59053;50.832;12.882;2023-02-01T03:52:02;5.78;;;1.85;;
70715;SDS011;59053;50.832;12.882;2023-02-01T03:54:28;8.70;;;1.70;;
70715;SDS011;59053;50.832;12.882;2023-02-01T03:56:55;5.97;;;1.90;;
70715;SDS011;59053;50.832;12.882;2023-02-01T03:59:22;8.18;;;2.10;;
70715;SDS011;59053;50.832;12.882;2023-02-01T04:01:47;8.07;;;1.90;;
70715;SDS011;59053;50.832;12.882;2023-02-01T04:04:12;5.30;;;1.80;;
70715;SDS011;59053;50.832;12.882;2023-02-01T04:06:53;6.95;;;2.00;;
70715;SDS011;59053;50.832;12.882;2023-02-01T04:09:19;9.75;;;2.15;;
70715;SDS011;59053;50.832;12.882;2023-02-01T04:11:45;9.00;;;1.93;;
70715;SDS011;59053;50.832;12.882;2023-02-01T04:14:10;7.20;;;1.90;;
70715;SDS011;59053;50.832;12.882;2023-02-01T04:16:35;5.97;;;1.90;;
70715;SDS011;59053;50.832;12.882;2023-02-01T04:19:01;7.33;;;2.10;;
70715;SDS011;59053;50.832;12.882;2023-02-01T04:21:26;10.65;;;2.00;;
70715;SDS011;59053;50.832;12.882;2023-02-01T04:23:52;9.70;;;1.90;;
70715;SDS011;59053;50.832;12.882;2023-02-01T04:26:19;8.65;;;1.83;;
70715;SDS011;59053;50.832;12.882;2023-02-01T04:28:44;9.18;;;1.90;;
70715;SDS011;59053;50.832;12.882;2023-02-01T04:31:12;10.98;;;2.08;;
70715;SDS011;59053;50.832;12.882;2023-02-01T04:33:40;10.10;;;1.98;;
70715;SDS011;59053;50.832;12.882;2023-02-01T04:36:06;8.27;;;1.80;;
70715;SDS011;59053;50.832;12.882;2023-02-01T04:38:31;9.83;;;2.00;;
70715;SDS011;59053;50.832;12.882;2023-02-01T04:40:57;8.80;;;1.70;;
70715;SDS011;59053;50.832;12.882;2023-02-01T04:43:23;9.63;;;1.80;;
70715;SDS011;59053;50.832;12.882;2023-02-01T04:45:49;11.75;;;2.13;;
70715;SDS011;59053;50.832;12.882;2023-02-01T04:48:16;8.98;;;2.17;;
70715;SDS011;59053;50.832;12.882;2023-02-01T04:50:45;9.07;;;1.92;;
70715;SDS011;59053;50.832;12.882;2023-02-01T04:53:14;8.23;;;1.97;;
70715;SDS011;59053;50.832;12.882;2023-02-01T04:55:40;9.77;;;2.28;;
70715;SDS011;59053;50.832;12.882;2023-02-01T04:58:05;11.35;;;2.08;;
70715;SDS011;59053;50.832;12.882;2023-02-01T05:00:31;11.53;;;2.40;;
70715;SDS011;59053;50.832;12.882;2023-02-01T05:02:56;9.60;;;1.93;;
70715;SDS011;59053;50.832;12.882;2023-02-01T05:05:21;7.80;;;2.10;;
70715;SDS011;59053;50.832;12.882;2023-02-01T05:07:47;8.07;;;2.03;;
70715;SDS011;59053;50.832;12.882;2023-02-01T05:10:12;10.18;;;2.10;;
70715;SDS011;59053;50.832;12.882;2023-02-01T05:12:37;8.50;;;2.10;;
70715;SDS011;59053;50.832;12.882;2023-02-01T05:15:23;7.57;;;2.20;;
70715;SDS011;59053;50.832;12.882;2023-02-01T05:17:48;12.23;;;2.25;;
70715;SDS011;59053;50.832;12.882;2023-02-01T05:20:14;10.50;;;2.57;;
70715;SDS011;59053;50.832;12.882;2023-02-01T05:22:40;9.03;;;2.30;;
70715;SDS011;59053;50.832;12.882;2023-02-01T05:25:06;10.13;;;2.55;;
70715;SDS011;59053;50.832;12.882;2023-02-01T05:27:32;8.03;;;2.40;;
70715;SDS011;59053;50.832;12.882;2023-02-01T05:29:57;16.70;;;2.83;;
70715;SDS011;59053;50.832;12.882;2023-02-01T05:32:22;10.77;;;2.17;;
70715;SDS011;59053;50.832;12.882;2023-02-01T05:34:48;10.73;;;2.37;;
70715;SDS011;59053;50.832;12.882;2023-02-01T05:37:13;9.07;;;2.40;;
70715;SDS011;59053;50.832;12.882;2023-02-01T05:39:39;9.83;;;2.47;;
70715;SDS011;59053;50.832;12.882;2023-02-01T05:42:04;8.10;;;1.90;;
70715;SDS011;59053;50.832;12.882;2023-02-01T05:44:29;7.43;;;2.30;;
70715;SDS011;59053;50.832;12.882;2023-02-01T05:46:55;7.97;;;2.93;;
70715;SDS011;59053;50.832;12.882;2023-02-01T05:52:36;10.75;;;2.20;;
70715;SDS011;59053;50.832;12.882;2023-02-01T05:55:02;9.53;;;2.13;;
70715;SDS011;59053;50.832;12.882;2023-02-01T05:57:27;7.80;;;2.00;;
70715;SDS011;59053;50.832;12.882;2023-02-01T05:59:53;6.67;;;2.20;;
70715;SDS011;59053;50.832;12.882;2023-02-01T06:02:18;8.27;;;2.13;;
70715;SDS011;59053;50.832;12.882;2023-02-01T06:04:44;7.53;;;2.10;;
70715;SDS011;59053;50.832;12.882;2023-02-01T06:07:09;8.17;;;2.00;;
70715;SDS011;59053;50.832;12.882;2023-02-01T06:09:35;6.20;;;2.20;;
70715;SDS011;59053;50.832;12.882;2023-02-01T06:12:01;8.98;;;2.10;;
70715;SDS011;59053;50.832;12.882;2023-02-01T06:14:27;5.13;;;2.20;;
70715;SDS011;59053;50.832;12.882;2023-02-01T06:16:53;7.77;;;1.90;;
70715;SDS011;59053;50.832;12.882;2023-02-01T06:19:20;8.02;;;2.50;;
70715;SDS011;59053;50.832;12.882;2023-02-01T06:21:46;10.03;;;2.20;;
70715;SDS011;59053;50.832;12.882;2023-02-01T06:24:11;7.60;;;2.10;;
70715;SDS011;59053;50.832;12.882;2023-02-01T06:26:37;7.77;;;2.30;;
70715;SDS011;59053;50.832;12.882;2023-02-01T06:29:04;12.43;;;2.35;;
70715;SDS011;59053;50.832;12.882;2023-02-01T06:31:35;8.07;;;2.70;;
70715;SDS011;59053;50.832;12.882;2023-02-01T06:34:32;4.37;;;1.87;;
70715;SDS011;59053;50.832;12.882;2023-02-01T06:36:58;12.48;;;2.67;;
70715;SDS011;59053;50.832;12.882;2023-02-01T06:39:23;6.77;;;2.30;;
70715;SDS011;59053;50.832;12.882;2023-02-01T06:41:48;10.20;;;2.30;;
70715;SDS011;59053;50.832;12.882;2023-02-01T06:44:14;10.27;;;2.33;;
70715;SDS011;59053;50.832;12.882;2023-02-01T06:46:40;8.27;;;2.50;;
70715;SDS011;59053;50.832;12.882;2023-02-01T06:49:05;9.43;;;2.43;;
70715;SDS011;59053;50.832;12.882;2023-02-01T06:51:30;8.47;;;2.80;;
70715;SDS011;59053;50.832;12.882;2023-02-01T06:53:56;11.23;;;2.67;;
70715;SDS011;59053;50.832;12.882;2023-02-01T06:56:21;8.80;;;2.47;;
70715;SDS011;59053;50.832;12.882;2023-02-01T06:58:47;9.97;;;2.63;;
70715;SDS011;59053;50.832;12.882;2023-02-01T07:01:12;11.13;;;2.63;;
70715;SDS011;59053;50.832;12.882;2023-02-01T07:03:38;9.00;;;2.63;;
70715;SDS011;59053;50.832;12.882;2023-02-01T07:06:04;7.17;;;2.67;;
70715;SDS011;59053;50.832;12.882;2023-02-01T07:08:31;10.80;;;2.67;;
70715;SDS011;59053;50.832;12.882;2023-02-01T07:11:00;9.43;;;2.80;;
70715;SDS011;59053;50.832;12.882;2023-02-01T07:13:30;11.65;;;2.42;;
70715;SDS011;59053;50.832;12.882;2023-02-01T07:15:57;5.83;;;2.27;;
70715;SDS011;59053;50.832;12.882;2023-02-01T07:18:26;11.07;;;2.40;;
70715;SDS011;59053;50.832;12.882;2023-02-01T07:20:55;9.53;;;2.50;;
70715;SDS011;59053;50.832;12.882;2023-02-01T07:23:21;8.20;;;2.47;;
70715;SDS011;59053;50.832;12.882;2023-02-01T07:25:47;8.68;;;2.53;;
70715;SDS011;59053;50.832;12.882;2023-02-01T07:28:12;10.40;;;2.80;;
70715;SDS011;59053;50.832;12.882;2023-02-01T07:30:37;9.43;;;2.73;;
70715;SDS011;59053;50.832;12.882;2023-02-01T07:33:03;8.87;;;2.63;;
70715;SDS011;59053;50.832;12.882;2023-02-01T07:35:28;9.27;;;2.40;;
70715;SDS011;59053;50.832;12.882;2023-02-01T07:37:54;8.23;;;2.20;;
70715;SDS011;59053;50.832;12.882;2023-02-01T07:40:19;8.70;;;2.30;;
70715;SDS011;59053;50.832;12.882;2023-02-01T07:42:49;9.00;;;2.45;;
70715;SDS011;59053;50.832;12.882;2023-02-01T07:45:15;9.60;;;2.50;;
70715;SDS011;59053;50.832;12.882;2023-02-01T07:47:40;10.63;;;2.80;;
70715;SDS011;59053;50.832;12.882;2023-02-01T07:50:06;7.63;;;2.57;;
70715;SDS011;59053;50.832;12.882;2023-02-01T07:52:31;7.57;;;2.67;;
70715;SDS011;59053;50.832;12.882;2023-02-01T07:54:57;12.27;;;2.80;;
70715;SDS011;59053;50.832;12.882;2023-02-01T07:57:22;7.87;;;2.67;;
70715;SDS011;59053;50.832;12.882;2023-02-01T07:59:47;8.20;;;2.38;;
70715;SDS011;59053;50.832;12.882;2023-02-01T08:02:37;10.97;;;2.57;;
70715;SDS011;59053;50.832;12.882;2023-02-01T08:05:03;8.23;;;2.37;;
70715;SDS011;59053;50.832;12.882;2023-02-01T08:07:29;8.88;;;2.90;;
70715;SDS011;59053;50.832;12.882;2023-02-01T08:09:55;11.60;;;2.53;;
70715;SDS011;59053;50.832;12.882;2023-02-01T08:12:20;11.90;;;2.87;;
70715;SDS011;59053;50.832;12.882;2023-02-01T08:14:45;11.37;;;2.33;;
70715;SDS011;59053;50.832;12.882;2023-02-01T08:17:11;11.70;;;2.27;;
70715;SDS011;59053;50.832;12.882;2023-02-01T08:19:36;8.57;;;2.47;;
70715;SDS011;59053;50.832;12.882;2023-02-01T08:22:01;8.33;;;2.30;;
70715;SDS011;59053;50.832;12.882;2023-02-01T08:24:31;5.70;;;2.13;;
70715;SDS011;59053;50.832;12.882;2023-02-01T08:26:57;7.97;;;2.20;;
70715;SDS011;59053;50.832;12.882;2023-02-01T08:29:23;9.27;;;2.30;;
70715;SDS011;59053;50.832;12.882;2023-02-01T08:31:48;10.97;;;2.47;;
70715;SDS011;59053;50.832;12.882;2023-02-01T08:34:13;11.00;;;2.35;;
70715;SDS011;59053;50.832;12.882;2023-02-01T08:36:39;11.03;;;2.47;;
70715;SDS011;59053;50.832;12.882;2023-02-01T08:39:04;7.93;;;1.90;;
70715;SDS011;59053;50.832;12.882;2023-02-01T08:41:33;6.40;;;1.85;;
70715;SDS011;59053;50.832;12.882;2023-02-01T08:43:59;10.27;;;2.10;;
70715;SDS011;59053;50.832;12.882;2023-02-01T08:46:24;8.30;;;1.80;;
70715;SDS011;59053;50.832;12.882;2023-02-01T08:48:50;8.53;;;1.83;;
70715;SDS011;59053;50.832;12.882;2023-02-01T08:51:17;5.88;;;1.75;;
70715;SDS011;59053;50.832;12.882;2023-02-01T08:53:44;7.00;;;1.90;;
70715;SDS011;59053;50.832;12.882;2023-02-01T08:56:10;7.67;;;1.70;;
70715;SDS011;59053;50.832;12.882;2023-02-01T08:58:36;12.82;;;2.10;;
70715;SDS011;59053;50.832;12.882;2023-02-01T09:01:02;8.90;;;1.50;;
70715;SDS011;59053;50.832;12.882;2023-02-01T09:03:29;9.88;;;1.90;;
70715;SDS011;59053;50.832;12.882;2023-02-01T09:05:59;9.10;;;2.20;;
70715;SDS011;59053;50.832;12.882;2023-02-01T09:08:25;8.80;;;2.22;;
70715;SDS011;59053;50.832;12.882;2023-02-01T09:10:51;7.40;;;1.80;;
70715;SDS011;59053;50.832;12.882;2023-02-01T09:13:16;12.83;;;2.40;;
70715;SDS011;59053;50.832;12.882;2023-02-01T09:15:41;13.63;;;2.20;;
70715;SDS011;59053;50.832;12.882;2023-02-01T09:18:07;14.60;;;3.08;;
70715;SDS011;59053;50.832;12.882;2023-02-01T09:20:32;11.40;;;2.20;;
70715;SDS011;59053;50.832;12.882;2023-02-01T09:22:57;9.17;;;2.30;;
70715;SDS011;59053;50.832;12.882;2023-02-01T09:25:23;6.93;;;1.70;;
70715;SDS011;59053;50.832;12.882;2023-02-01T09:27:48;8.80;;;2.23;;
70715;SDS011;59053;50.832;12.882;2023-02-01T09:30:13;12.27;;;2.33;;
70715;SDS011;59053;50.832;12.882;2023-02-01T09:32:39;6.67;;;1.93;;
70715;SDS011;59053;50.832;12.882;2023-02-01T09:35:04;12.73;;;2.60;;
70715;SDS011;59053;50.832;12.882;2023-02-01T09:37:30;5.33;;;1.33;;
70715;SDS011;59053;50.832;12.882;2023-02-01T09:39:55;12.47;;;2.30;;
70715;SDS011;59053;50.832;12.882;2023-02-01T09:47:53;9.50;;;2.50;;
70715;SDS011;59053;50.832;12.882;2023-02-01T09:50:28;10.57;;;2.50;;
70715;SDS011;59053;50.832;12.882;2023-02-01T09:53:20;5.83;;;2.10;;
70715;SDS011;59053;50.832;12.882;2023-02-01T09:55:47;9.82;;;2.30;;
70715;SDS011;59053;50.832;12.882;2023-02-01T10:01:01;7.20;;;2.10;;
70715;SDS011;59053;50.832;12.882;2023-02-01T10:03:32;6.63;;;1.73;;
70715;SDS011;59053;50.832;12.882;2023-02-01T10:14:59;7.50;;;1.92;;
70715;SDS011;59053;50.832;12.882;2023-02-01T10:20:06;7.93;;;2.43;;
70715;SDS011;59053;50.832;12.882;2023-02-01T10:22:40;5.68;;;2.42;;
70715;SDS011;59053;50.832;12.882;2023-02-01T10:27:37;7.95;;;2.67;;
70715;SDS011;59053;50.832;12.882;2023-02-01T10:30:12;8.93;;;3.05;;
70715;SDS011;59053;50.832;12.882;2023-02-01T10:32:41;9.33;;;2.30;;
70715;SDS011;59053;50.832;12.882;2023-02-01T10:35:15;13.05;;;2.38;;
70715;SDS011;59053;50.832;12.882;2023-02-01T10:37:42;7.28;;;2.40;;
70715;SDS011;59053;50.832;12.882;2023-02-01T10:40:21;8.80;;;2.50;;
70715;SDS011;59053;50.832;12.882;2023-02-01T10:42:52;8.43;;;2.50;;
70715;SDS011;59053;50.832;12.882;2023-02-01T10:45:20;6.85;;;2.30;;
70715;SDS011;59053;50.832;12.882;2023-02-01T10:47:50;7.82;;;2.20;;
70715;SDS011;59053;50.832;12.882;2023-02-01T10:50:18;9.45;;;2.30;;
70715;SDS011;59053;50.832;12.882;2023-02-01T10:52:48;6.50;;;2.30;;
70715;SDS011;59053;50.832;12.882;2023-02-01T10:55:32;11.10;;;2.00;;
70715;SDS011;59053;50.832;12.882;2023-02-01T10:58:01;5.28;;;1.90;;
70715;SDS011;59053;50.832;12.882;2023-02-01T11:00:28;9.15;;;2.45;;
70715;SDS011;59053;50.832;12.882;2023-02-01T11:03:01;7.20;;;2.00;;
70715;SDS011;59053;50.832;12.882;2023-02-01T11:05:46;2.78;;;1.40;;
70715;SDS011;59053;50.832;12.882;2023-02-01T11:08:16;6.53;;;1.80;;
70715;SDS011;59053;50.832;12.882;2023-02-01T11:10:43;7.95;;;1.80;;
70715;SDS011;59053;50.832;12.882;2023-02-01T11:13:16;5.03;;;1.37;;
70715;SDS011;59053;50.832;12.882;2023-02-01T11:15:46;6.00;;;1.50;;
70715;SDS011;59053;50.832;12.882;2023-02-01T11:18:19;8.60;;;1.98;;
70715;SDS011;59053;50.832;12.882;2023-02-01T11:20:46;4.72;;;1.50;;
70715;SDS011;59053;50.832;12.882;2023-02-01T11:23:15;5.82;;;1.58;;
70715;SDS011;59053;50.832;12.882;2023-02-01T11:25:55;5.30;;;1.83;;
70715;SDS011;59053;50.832;12.882;2023-02-01T11:28:27;8.32;;;1.80;;
70715;SDS011;59053;50.832;12.882;2023-02-01T11:30:56;5.80;;;1.80;;
70715;SDS011;59053;50.832;12.882;2023-02-01T11:33:30;4.38;;;1.27;;
70715;SDS011;59053;50.832;12.882;2023-02-01T11:36:00;4.65;;;1.73;;
70715;SDS011;59053;50.832;12.882;2023-02-01T11:38:35;3.80;;;1.30;;
70715;SDS011;59053;50.832;12.882;2023-02-01T11:41:13;6.70;;;1.50;;
70715;SDS011;59053;50.832;12.882;2023-02-01T11:43:58;3.40;;;1.17;;
70715;SDS011;59053;50.832;12.882;2023-02-01T11:46:29;6.88;;;1.60;;
70715;SDS011;59053;50.832;12.882;2023-02-01T11:48:56;6.67;;;1.93;;
70715;SDS011;59053;50.832;12.882;2023-02-01T11:51:37;7.85;;;2.25;;
70715;SDS011;59053;50.832;12.882;2023-02-01T11:54:11;6.18;;;2.00;;
70715;SDS011;59053;50.832;12.882;2023-02-01T11:57:17;4.07;;;1.38;;
70715;SDS011;59053;50.832;12.882;2023-02-01T11:59:53;7.55;;;1.70;;
70715;SDS011;59053;50.832;12.882;2023-02-01T12:02:37;7.13;;;1.70;;
70715;SDS011;59053;50.832;12.882;2023-02-01T12:05:21;5.18;;;1.58;;
70715;SDS011;59053;50.832;12.882;2023-02-01T12:08:14;8.90;;;1.90;;
70715;SDS011;59053;50.832;12.882;2023-02-01T12:13:36;4.90;;;1.50;;
70715;SDS011;59053;50.832;12.882;2023-02-01T12:19:10;6.50;;;1.70;;
70715;SDS011;59053;50.832;12.882;2023-02-01T12:22:00;5.35;;;1.75;;
70715;SDS011;59053;50.832;12.882;2023-02-01T12:30:43;10.13;;;1.70;;
70715;SDS011;59053;50.832;12.882;2023-02-01T12:33:27;8.90;;;2.05;;
70715;SDS011;59053;50.832;12.882;2023-02-01T12:39:23;6.60;;;1.77;;
70715;SDS011;59053;50.832;12.882;2023-02-01T12:45:11;10.00;;;2.20;;
70715;SDS011;59053;50.832;12.882;2023-02-01T12:50:20;4.03;;;1.80;;
70715;SDS011;59053;50.832;12.882;2023-02-01T12:52:54;4.85;;;1.35;;
70715;SDS011;59053;50.832;12.882;2023-02-01T12:55:23;6.65;;;1.25;;
70715;SDS011;59053;50.832;12.882;2023-02-01T12:57:54;5.50;;;1.47;;
70715;SDS011;59053;50.832;12.882;2023-02-01T13:00:23;5.65;;;1.50;;
70715;SDS011;59053;50.832;12.882;2023-02-01T13:02:59;6.25;;;1.17;;
70715;SDS011;59053;50.832;12.882;2023-02-01T13:05:44;4.60;;;1.45;;
70715;SDS011;59053;50.832;12.882;2023-02-01T13:08:36;3.75;;;1.40;;
70715;SDS011;59053;50.832;12.882;2023-02-01T13:11:13;5.77;;;1.50;;
70715;SDS011;59053;50.832;12.882;2023-02-01T13:16:43;3.35;;;1.45;;
70715;SDS011;59053;50.832;12.882;2023-02-01T13:19:21;7.70;;;1.60;;
70715;SDS011;59053;50.832;12.882;2023-02-01T13:21:51;7.65;;;1.80;;
70715;SDS011;59053;50.832;12.882;2023-02-01T13:24:29;6.83;;;1.80;;
70715;SDS011;59053;50.832;12.882;2023-02-01T13:26:57;6.85;;;1.50;;
70715;SDS011;59053;50.832;12.882;2023-02-01T13:29:23;5.53;;;1.73;;
70715;SDS011;59053;50.832;12.882;2023-02-01T13:31:52;7.35;;;1.90;;
70715;SDS011;59053;50.832;12.882;2023-02-01T13:34:29;7.25;;;1.80;;
70715;SDS011;59053;50.832;12.882;2023-02-01T13:39:52;10.95;;;1.90;;
70715;SDS011;59053;50.832;12.882;2023-02-01T13:42:29;5.80;;;1.70;;
70715;SDS011;59053;50.832;12.882;2023-02-01T13:45:00;8.02;;;2.00;;
70715;SDS011;59053;50.832;12.882;2023-02-01T13:47:38;7.40;;;2.28;;
70715;SDS011;59053;50.832;12.882;2023-02-01T13:50:13;7.15;;;1.95;;
70715;SDS011;59053;50.832;12.882;2023-02-01T13:52:51;4.70;;;1.70;;
70715;SDS011;59053;50.832;12.882;2023-02-01T13:57:47;6.75;;;1.80;;
70715;SDS011;59053;50.832;12.882;2023-02-01T14:00:30;8.55;;;2.00;;
70715;SDS011;59053;50.832;12.882;2023-02-01T14:13:27;5.28;;;2.10;;
70715;SDS011;59053;50.832;12.882;2023-02-01T14:23:40;7.60;;;2.00;;
70715;SDS011;59053;50.832;12.882;2023-02-01T14:26:08;6.22;;;1.90;;
70715;SDS011;59053;50.832;12.882;2023-02-01T14:28:36;5.00;;;1.95;;
70715;SDS011;59053;50.832;12.882;2023-02-01T14:31:13;8.43;;;2.30;;
70715;SDS011;59053;50.832;12.882;2023-02-01T14:33:41;10.65;;;2.45;;
70715;SDS011;59053;50.832;12.882;2023-02-01T14:36:08;10.63;;;1.93;;
70715;SDS011;59053;50.832;12.882;2023-02-01T14:38:35;6.20;;;2.00;;
70715;SDS011;59053;50.832;12.882;2023-02-01T14:44:21;7.38;;;2.05;;
70715;SDS011;59053;50.832;12.882;2023-02-01T14:47:04;8.98;;;2.20;;
70715;SDS011;59053;50.832;12.882;2023-02-01T14:49:32;5.93;;;2.23;;
70715;SDS011;59053;50.832;12.882;2023-02-01T14:51:59;9.18;;;2.10;;
70715;SDS011;59053;50.832;12.882;2023-02-01T14:54:25;10.35;;;2.17;;
70715;SDS011;59053;50.832;12.882;2023-02-01T14:56:51;9.57;;;2.25;;
70715;SDS011;59053;50.832;12.882;2023-02-01T14:59:17;6.30;;;2.17;;
70715;SDS011;59053;50.832;12.882;2023-02-01T15:01:49;7.70;;;2.13;;
70715;SDS011;59053;50.832;12.882;2023-02-01T15:04:18;8.23;;;2.40;;
70715;SDS011;59053;50.832;12.882;2023-02-01T15:09:20;6.75;;;2.30;;
70715;SDS011;59053;50.832;12.882;2023-02-01T15:11:53;9.40;;;2.65;;
70715;SDS011;59053;50.832;12.882;2023-02-01T15:14:22;8.13;;;2.53;;
70715;SDS011;59053;50.832;12.882;2023-02-01T15:16:48;10.60;;;2.55;;
70715;SDS011;59053;50.832;12.882;2023-02-01T15:19:19;10.50;;;2.85;;
70715;SDS011;59053;50.832;12.882;2023-02-01T15:21:50;7.40;;;2.40;;
70715;SDS011;59053;50.832;12.882;2023-02-01T15:24:24;8.50;;;3.23;;
70715;SDS011;59053;50.832;12.882;2023-02-01T15:26:51;8.20;;;2.45;;
70715;SDS011;59053;50.832;12.882;2023-02-01T15:29:18;12.57;;;3.10;;
70715;SDS011;59053;50.832;12.882;2023-02-01T15:31:53;10.65;;;2.47;;
70715;SDS011;59053;50.832;12.882;2023-02-01T15:34:20;7.00;;;2.42;;
70715;SDS011;59053;50.832;12.882;2023-02-01T15:36:46;7.07;;;2.53;;
70715;SDS011;59053;50.832;12.882;2023-02-01T15:44:31;6.82;;;2.30;;
70715;SDS011;59053;50.832;12.882;2023-02-01T15:47:16;10.38;;;2.80;;
70715;SDS011;59053;50.832;12.882;2023-02-01T15:49:43;8.43;;;2.67;;
70715;SDS011;59053;50.832;12.882;2023-02-01T15:52:20;7.35;;;2.53;;
70715;SDS011;59053;50.832;12.882;2023-02-01T15:54:52;4.90;;;2.20;;
70715;SDS011;59053;50.832;12.882;2023-02-01T15:57:20;10.85;;;2.60;;
70715;SDS011;59053;50.832;12.882;2023-02-01T15:59:55;7.05;;;2.30;;
70715;SDS011;59053;50.832;12.882;2023-02-01T16:02:34;7.20;;;2.05;;
70715;SDS011;59053;50.832;12.882;2023-02-01T16:05:01;6.87;;;1.97;;
70715;SDS011;59053;50.832;12.882;2023-02-01T16:07:27;7.32;;;2.10;;
70715;SDS011;59053;50.832;12.882;2023-02-01T16:09:55;7.18;;;2.17;;
70715;SDS011;59053;50.832;12.882;2023-02-01T16:12:45;6.45;;;2.33;;
70715;SDS011;59053;50.832;12.882;2023-02-01T16:15:11;6.22;;;2.20;;
70715;SDS011;59053;50.832;12.882;2023-02-01T16:17:36;9.97;;;2.50;;
70715;SDS011;59053;50.832;12.882;2023-02-01T16:20:02;6.00;;;2.20;;
70715;SDS011;59053;50.832;12.882;2023-02-01T16:22:27;7.77;;;2.10;;
70715;SDS011;59053;50.832;12.882;2023-02-01T16:24:53;8.90;;;1.95;;
70715;SDS011;59053;50.832;12.882;2023-02-01T16:27:18;8.27;;;1.90;;
70715;SDS011;59053;50.832;12.882;2023-02-01T16:29:44;6.70;;;2.20;;
70715;SDS011;59053;50.832;12.882;2023-02-01T16:32:14;6.32;;;1.80;;
70715;SDS011;59053;50.832;12.882;2023-02-01T16:34:42;5.83;;;1.93;;